KHEY/HEY METAR and TAF weather

Enter ICAO airport designator
Station Type Date Time Source
KHEY METAR 2019/04/19 08:58 UTC NOAA

KHEY 190858Z AUTO 21012G18KT 8SM -RA OVC011 22/22 A2955 RMK AO2 PK WND 20027/02 LTG DSNT SW-NE OVC V BKN SLP006 P0005 60006 T02220222 57022


Station Type Date Time Source
KHEY Decoded METAR 2019/04/19 08:58 UTC NOAA

Hanchey AHP / Ozark, AL, United States (KHEY) 31-21N 085-40W
Apr 19, 2019 - 04:58 AM EDT / 2019.04.19 0858 UTC
Wind: from the SSW (210 degrees) at 14 MPH (12 KT) gusting to 21 MPH (18 KT):0
Visibility: 8 mile(s):0
Sky conditions: overcast
Weather: light rain; Lightning observed
Precipitation last hour: 0.05 inches
Temperature: 72.0 F (22.2 C)
Dew Point: 72.0 F (22.2 C)
Relative Humidity: 100%
Pressure (altimeter): 29.55 in. Hg (1000 hPa)
Pressure tendency: 0.06 inches (2.2 hPa) lower than three hours ago
ob: KHEY 190858Z AUTO 21012G18KT 8SM -RA OVC011 22/22 A2955 RMK AO2 PK WND 20027/02 LTG DSNT SW-NE OVC V BKN SLP006 P0005 60006 T02220222 57022
cycle: 9

Station Type Date Time Source
KHEY TAF UTC NOAA

Error!

Example: see airport list